Flight Track Log - Related Links

Times and Time Zones

All times are in EDT time to prevent confusion due to time zone crossing. See the SWA696 flight status page for this flight to view local times or setup timezone preferences in your user account.

Time Position Orientation Groundspeed Altitude Reporting Facility
EDT Latitude Longitude Course Direction KTS MPH feet Rate Location/Type
Sun 11:30:52 AM 38.7667 -90.3833 17° North 155 178 1,700  Level Gateway (St. Louis) TRACON
Sun 11:31:40 AM 38.8000 -90.4000 339° North 211 243 3,200 1,516 Climbing Gateway (St. Louis) TRACON
Sun 11:32:23 AM 38.8369 -90.4128 345° North 236 272 4,000 2,057 Climbing Kansas City Center
Sun 11:33:25 AM 38.9022 -90.3725 26° Northeast 253 291 6,800 3,194 Climbing Kansas City Center
Sun 11:34:27 AM 38.9789 -90.3061 34° Northeast 272 313 10,600 2,613 Climbing Kansas City Center
Sun 11:35:29 AM 39.0536 -90.2419 34° Northeast 318 366 12,200 2,000 Climbing Kansas City Center
Sun 11:36:00 AM 39.0126 -90.1116 17° North  Level FlightAware Approximate
Sun 11:36:30 AM 39.1317 -90.1739 34° Northeast 339 390 14,700  Level Kansas City Center
Sun 11:37:32 AM 39.2153 -90.1014 34° Northeast 355 409 17,100 2,177 Climbing Kansas City Center
Sun 11:38:34 AM 39.3000 -90.0281 34° Northeast 364 419 19,200 1,984 Climbing Kansas City Center
Sun 11:39:36 AM 39.3928 -89.9592 30° Northeast 382 440 21,200 1,839 Climbing Kansas City Center
Sun 11:40:38 AM 39.4900 -89.8992 25° Northeast 387 445 23,000 1,839 Climbing Kansas City Center
Sun 11:41:40 AM 39.6111 -89.8222 26° Northeast 400 460 25,000 1,742 Climbing Kansas City Center
Sun 11:42:42 AM 39.7158 -89.7556 26° Northeast 409 471 26,600 968 Climbing Kansas City Center
Sun 11:43:44 AM 39.8208 -89.6900 26° Northeast 417 480 27,000 194 Climbing Kansas City Center
Sun 11:44:46 AM 39.9178 -89.6033 34° Northeast 423 487 27,000  Level Kansas City Center
Sun 11:45:20 AM 39.9739 -89.5525 35° Northeast 423 487 27,000 -125 Level Chicago Center
Sun 11:46:22 AM 40.0678 -89.4611 37° Northeast 423 487 26,800 -581 Descending Chicago Center
Sun 11:47:24 AM 40.1644 -89.3728 35° Northeast 426 490 25,800 -968 Descending Chicago Center
Sun 11:48:26 AM 40.2672 -89.2981 29° Northeast 424 488 24,800 -1,024 Descending Chicago Center
Sun 11:49:27 AM 40.3903 -89.2053 30° Northeast 426 490 23,700 -1,512 Descending Chicago Center
Sun 11:50:29 AM 40.4867 -89.1317 30° Northeast 406 467 21,700 -2,032 Descending Chicago Center
Sun 11:51:31 AM 40.5789 -89.0628 30° Northeast 387 445 19,500 -2,129 Descending Chicago Center
Sun 11:52:33 AM 40.6678 -88.9969 29° Northeast 372 428 17,300 -1,210 Descending Chicago Center
Sun 11:53:35 AM 40.7517 -88.9317 31° Northeast 355 409 17,000 -290 Descending Chicago Center
Sun 11:54:37 AM 40.8350 -88.8658 31° Northeast 350 403 16,700 -732 Descending Chicago Center
Sun 11:55:38 AM 40.9311 -88.7944 29° Northeast 358 412 15,500 -1,073 Descending Chicago Center
Sun 11:56:40 AM 41.0153 -88.7294 30° Northeast 351 404 14,500 -1,210 Descending Chicago Center
Sun 11:57:42 AM 41.1003 -88.6625 31° Northeast 355 409 13,000 -2,032 Descending Chicago Center
Sun 11:58:44 AM 41.2031 -88.5842 30° Northeast 356 410 10,300 -1,548 Descending Chicago Center
Sun 11:59:46 AM 41.2808 -88.5250 30° Northeast 328 377 9,800 -1,220 Descending Chicago Center
Sun 12:00:47 PM 41.3486 -88.4717 31° Northeast 290 334 7,800 -1,854 Descending Chicago Center
Sun 12:01:49 PM 41.4189 -88.4169 30° Northeast 290 334 6,000 -871 Descending Chicago Center
Sun 12:02:51 PM 41.4669 -88.3414 50° Northeast 274 315 6,000 -242 Level Chicago Center
Sun 12:03:53 PM 41.5006 -88.2525 63° Northeast 267 307 5,500 -488 Descending Chicago Center
Sun 12:04:54 PM 41.5364 -88.1642 62° Northeast 268 308 5,000 -244 Descending Chicago Center
Sun 12:05:56 PM 41.5706 -88.0778 62° Northeast 263 303 5,000  Level Chicago Center
Sun 12:06:58 PM 41.6047 -87.9869 63° Northeast 231 266 5,000 -484 Level Chicago Center
Sun 12:08:00 PM 41.6475 -87.9261 47° Northeast 229 264 4,000 -857 Descending Chicago Center
Sun 12:08:57 PM 41.6833 -87.8667 51° Northeast 212 244 3,300 -974 Descending Chicago TRACON
Sun 12:09:57 PM 41.7333 -87.8167 37° Northeast 174 200 2,100 -1,000 Descending Chicago TRACON
Sun 12:10:57 PM 41.7500 -87.7833 56° Northeast 136 157 1,300 -800 Descending Chicago TRACON

Login

Don't have an account? Register now (free) for customized features, flight alerts, and more!